sensor_id;sensor_type;location;lat;lon;timestamp;pressure;altitude;pressure_sealevel;temperature;humidity
30463;BME280;17256;43.618;25.336;2023-04-19T00:01:06;100180.63;;;10.26;100.00
30463;BME280;17256;43.618;25.336;2023-04-19T00:03:37;100200.25;;;10.30;100.00
30463;BME280;17256;43.618;25.336;2023-04-19T00:06:08;100280.88;;;10.96;100.00
30463;BME280;17256;43.618;25.336;2023-04-19T00:08:36;100183.56;;;10.25;100.00
30463;BME280;17256;43.618;25.336;2023-04-19T00:11:06;100301.78;;;11.10;100.00
30463;BME280;17256;43.618;25.336;2023-04-19T00:13:32;100074.53;;;9.72;100.00
30463;BME280;17256;43.618;25.336;2023-04-19T00:16:00;100084.22;;;9.68;100.00
30463;BME280;17256;43.618;25.336;2023-04-19T00:18:33;100283.84;;;10.95;100.00
30463;BME280;17256;43.618;25.336;2023-04-19T00:21:12;100001.63;;;9.23;100.00
30463;BME280;17256;43.618;25.336;2023-04-19T00:23:38;100155.91;;;10.26;100.00
30463;BME280;17256;43.618;25.336;2023-04-19T00:26:07;100269.84;;;10.83;100.00
30463;BME280;17256;43.618;25.336;2023-04-19T00:28:44;99993.63;;;9.29;100.00
30463;BME280;17256;43.618;25.336;2023-04-19T00:31:29;99973.50;;;9.02;100.00
30463;BME280;17256;43.618;25.336;2023-04-19T00:34:37;100399.97;;;11.50;100.00
30463;BME280;17256;43.618;25.336;2023-04-19T00:37:59;99965.84;;;8.84;100.00
30463;BME280;17256;43.618;25.336;2023-04-19T00:41:02;100415.81;;;11.48;100.00
30463;BME280;17256;43.618;25.336;2023-04-19T00:44:51;100153.34;;;9.64;100.00
30463;BME280;17256;43.618;25.336;2023-04-19T00:47:59;99965.38;;;8.39;100.00
30463;BME280;17256;43.618;25.336;2023-04-19T00:51:24;99988.31;;;8.38;100.00
30463;BME280;17256;43.618;25.336;2023-04-19T00:54:37;100416.38;;;11.10;100.00
30463;BME280;17256;43.618;25.336;2023-04-19T00:57:45;100219.03;;;9.78;100.00
30463;BME280;17256;43.618;25.336;2023-04-19T01:00:39;100415.53;;;11.09;100.00
30463;BME280;17256;43.618;25.336;2023-04-19T01:03:54;100432.44;;;11.13;100.00
30463;BME280;17256;43.618;25.336;2023-04-19T01:07:33;100267.16;;;10.22;100.00
30463;BME280;17256;43.618;25.336;2023-04-19T01:14:48;99983.88;;;8.37;100.00
30463;BME280;17256;43.618;25.336;2023-04-19T01:18:17;100153.16;;;9.24;100.00
30463;BME280;17256;43.618;25.336;2023-04-19T01:21:35;99992.75;;;8.18;100.00
30463;BME280;17256;43.618;25.336;2023-04-19T01:25:12;100404.66;;;10.75;100.00
30463;BME280;17256;43.618;25.336;2023-04-19T01:29:17;99921.38;;;7.78;100.00
30463;BME280;17256;43.618;25.336;2023-04-19T02:08:19;100371.94;;;10.39;100.00
30463;BME280;17256;43.618;25.336;2023-04-19T02:15:42;100143.66;;;9.20;100.00
30463;BME280;17256;43.618;25.336;2023-04-19T02:18:51;100368.81;;;10.42;100.00
30463;BME280;17256;43.618;25.336;2023-04-19T02:22:27;99911.09;;;7.59;100.00
30463;BME280;17256;43.618;25.336;2023-04-19T02:26:04;100367.50;;;10.38;100.00
30463;BME280;17256;43.618;25.336;2023-04-19T02:29:55;100364.38;;;10.41;100.00
30463;BME280;17256;43.618;25.336;2023-04-19T02:33:28;100117.31;;;8.91;100.00
30463;BME280;17256;43.618;25.336;2023-04-19T02:37:07;100379.97;;;10.40;100.00
30463;BME280;17256;43.618;25.336;2023-04-19T02:53:14;100367.78;;;10.50;100.00
30463;BME280;17256;43.618;25.336;2023-04-19T02:56:20;99962.03;;;8.16;100.00
30463;BME280;17256;43.618;25.336;2023-04-19T02:59:24;100361.69;;;10.61;100.00
30463;BME280;17256;43.618;25.336;2023-04-19T03:02:55;100367.44;;;10.66;100.00
30463;BME280;17256;43.618;25.336;2023-04-19T03:06:13;100369.97;;;10.67;100.00
30463;BME280;17256;43.618;25.336;2023-04-19T03:09:48;100364.09;;;10.77;100.00
30463;BME280;17256;43.618;25.336;2023-04-19T03:13:18;99973.06;;;8.29;100.00
30463;BME280;17256;43.618;25.336;2023-04-19T03:16:27;100369.56;;;10.77;100.00
30463;BME280;17256;43.618;25.336;2023-04-19T03:19:27;100367.25;;;10.74;100.00
30463;BME280;17256;43.618;25.336;2023-04-19T03:23:20;100206.34;;;9.71;100.00
30463;BME280;17256;43.618;25.336;2023-04-19T03:30:47;99864.63;;;7.31;100.00
30463;BME280;17256;43.618;25.336;2023-04-19T03:38:50;100373.09;;;10.58;100.00
30463;BME280;17256;43.618;25.336;2023-04-19T03:42:03;100118.56;;;8.88;100.00
30463;BME280;17256;43.618;25.336;2023-04-19T03:45:27;99948.75;;;8.13;100.00
30463;BME280;17256;43.618;25.336;2023-04-19T03:48:41;100142.88;;;9.33;100.00
30463;BME280;17256;43.618;25.336;2023-04-19T03:58:32;100287.66;;;10.33;100.00
30463;BME280;17256;43.618;25.336;2023-04-19T04:01:04;100370.44;;;10.84;100.00
30463;BME280;17256;43.618;25.336;2023-04-19T04:03:31;100351.97;;;10.65;100.00
30463;BME280;17256;43.618;25.336;2023-04-19T04:05:57;100327.88;;;10.54;100.00
30463;BME280;17256;43.618;25.336;2023-04-19T04:08:22;100342.47;;;10.61;100.00
30463;BME280;17256;43.618;25.336;2023-04-19T04:10:48;100264.22;;;10.30;100.00
30463;BME280;17256;43.618;25.336;2023-04-19T04:13:14;100334.06;;;10.69;100.00
30463;BME280;17256;43.618;25.336;2023-04-19T04:16:18;100371.56;;;11.03;100.00
30463;BME280;17256;43.618;25.336;2023-04-19T04:20:00;100370.06;;;11.00;100.00
30463;BME280;17256;43.618;25.336;2023-04-19T04:34:38;99914.63;;;8.02;100.00
30463;BME280;17256;43.618;25.336;2023-04-19T04:37:18;100251.00;;;10.06;100.00
30463;BME280;17256;43.618;25.336;2023-04-19T04:39:48;100130.81;;;9.20;100.00
30463;BME280;17256;43.618;25.336;2023-04-19T04:42:14;100092.78;;;9.04;100.00
30463;BME280;17256;43.618;25.336;2023-04-19T04:44:40;100335.50;;;10.58;100.00
30463;BME280;17256;43.618;25.336;2023-04-19T04:47:11;100305.25;;;10.45;100.00
30463;BME280;17256;43.618;25.336;2023-04-19T04:49:42;100135.38;;;9.48;100.00
30463;BME280;17256;43.618;25.336;2023-04-19T04:52:10;100192.13;;;9.95;100.00
30463;BME280;17256;43.618;25.336;2023-04-19T04:54:45;100144.47;;;9.55;100.00
30463;BME280;17256;43.618;25.336;2023-04-19T04:57:22;100388.88;;;11.03;100.00
30463;BME280;17256;43.618;25.336;2023-04-19T04:59:52;100024.47;;;8.96;100.00
30463;BME280;17256;43.618;25.336;2023-04-19T05:02:19;100303.81;;;10.56;100.00
30463;BME280;17256;43.618;25.336;2023-04-19T05:04:48;100075.00;;;9.28;100.00
30463;BME280;17256;43.618;25.336;2023-04-19T05:07:15;100141.13;;;9.66;100.00
30463;BME280;17256;43.618;25.336;2023-04-19T05:09:41;100182.22;;;10.14;100.00
30463;BME280;17256;43.618;25.336;2023-04-19T05:12:08;100131.41;;;9.57;100.00
30463;BME280;17256;43.618;25.336;2023-04-19T05:14:35;100227.91;;;10.22;100.00
30463;BME280;17256;43.618;25.336;2023-04-19T05:17:02;100235.94;;;10.36;100.00
30463;BME280;17256;43.618;25.336;2023-04-19T05:19:29;100004.50;;;9.09;100.00
30463;BME280;17256;43.618;25.336;2023-04-19T05:22:01;99928.34;;;8.78;100.00
30463;BME280;17256;43.618;25.336;2023-04-19T05:24:27;99991.94;;;9.28;100.00
30463;BME280;17256;43.618;25.336;2023-04-19T05:26:54;99972.28;;;9.11;100.00
30463;BME280;17256;43.618;25.336;2023-04-19T05:29:23;100011.81;;;9.43;100.00
30463;BME280;17256;43.618;25.336;2023-04-19T05:31:53;100209.97;;;10.32;100.00
30463;BME280;17256;43.618;25.336;2023-04-19T05:34:26;100219.94;;;10.46;100.00
30463;BME280;17256;43.618;25.336;2023-04-19T05:36:54;100250.00;;;10.88;100.00
30463;BME280;17256;43.618;25.336;2023-04-19T05:39:25;99921.00;;;8.91;100.00
30463;BME280;17256;43.618;25.336;2023-04-19T05:41:51;100291.69;;;11.18;100.00
30463;BME280;17256;43.618;25.336;2023-04-19T05:44:32;100245.56;;;10.67;100.00
30463;BME280;17256;43.618;25.336;2023-04-19T05:47:05;99998.66;;;9.18;100.00
30463;BME280;17256;43.618;25.336;2023-04-19T05:49:55;99947.84;;;9.09;100.00
30463;BME280;17256;43.618;25.336;2023-04-19T05:52:35;100178.78;;;10.66;100.00
30463;BME280;17256;43.618;25.336;2023-04-19T05:55:03;99999.44;;;9.73;100.00
30463;BME280;17256;43.618;25.336;2023-04-19T05:57:33;100414.97;;;12.26;100.00
30463;BME280;17256;43.618;25.336;2023-04-19T06:00:00;100025.63;;;10.09;100.00
30463;BME280;17256;43.618;25.336;2023-04-19T06:02:38;100178.13;;;11.10;100.00
30463;BME280;17256;43.618;25.336;2023-04-19T06:05:05;100187.00;;;11.26;100.00
30463;BME280;17256;43.618;25.336;2023-04-19T06:07:32;100246.00;;;12.14;100.00
30463;BME280;17256;43.618;25.336;2023-04-19T06:09:59;100188.00;;;12.16;100.00
30463;BME280;17256;43.618;25.336;2023-04-19T06:12:30;100135.25;;;11.74;100.00
30463;BME280;17256;43.618;25.336;2023-04-19T06:14:57;100389.88;;;13.44;100.00
30463;BME280;17256;43.618;25.336;2023-04-19T06:17:25;100129.44;;;11.44;100.00
30463;BME280;17256;43.618;25.336;2023-04-19T06:19:52;100378.31;;;12.90;100.00
30463;BME280;17256;43.618;25.336;2023-04-19T06:22:20;100383.91;;;12.71;100.00
30463;BME280;17256;43.618;25.336;2023-04-19T06:24:48;100226.47;;;11.58;100.00
30463;BME280;17256;43.618;25.336;2023-04-19T06:27:17;100002.44;;;10.44;100.00
30463;BME280;17256;43.618;25.336;2023-04-19T06:29:44;100024.81;;;10.48;100.00
30463;BME280;17256;43.618;25.336;2023-04-19T11:46:37;100240.84;;;17.04;87.27
30463;BME280;17256;43.618;25.336;2023-04-19T11:49:54;100058.25;;;16.34;86.32
30463;BME280;17256;43.618;25.336;2023-04-19T11:53:20;99886.09;;;14.90;87.05
30463;BME280;17256;43.618;25.336;2023-04-19T11:56:09;100313.41;;;17.92;85.97
30463;BME280;17256;43.618;25.336;2023-04-19T12:02:22;100046.66;;;17.04;78.33
30463;BME280;17256;43.618;25.336;2023-04-19T12:05:08;100302.91;;;19.03;77.69
30463;BME280;17256;43.618;25.336;2023-04-19T12:11:21;100109.25;;;18.48;74.75
30463;BME280;17256;43.618;25.336;2023-04-19T12:14:06;100142.03;;;18.68;70.94
30463;BME280;17256;43.618;25.336;2023-04-19T12:16:42;99930.03;;;17.38;69.86
30463;BME280;17256;43.618;25.336;2023-04-19T12:25:32;100089.22;;;18.46;71.19
30463;BME280;17256;43.618;25.336;2023-04-19T12:28:02;100080.91;;;18.19;71.32
30463;BME280;17256;43.618;25.336;2023-04-19T12:30:28;100277.41;;;19.43;69.94
30463;BME280;17256;43.618;25.336;2023-04-19T12:32:54;100196.84;;;18.99;67.33
30463;BME280;17256;43.618;25.336;2023-04-19T12:35:24;100120.09;;;18.71;70.55
30463;BME280;17256;43.618;25.336;2023-04-19T12:41:46;100256.50;;;19.78;69.29
30463;BME280;17256;43.618;25.336;2023-04-19T12:44:45;99831.44;;;17.08;69.41
30463;BME280;17256;43.618;25.336;2023-04-19T12:48:04;99929.94;;;17.81;63.70
30463;BME280;17256;43.618;25.336;2023-04-19T12:51:19;100247.69;;;19.91;63.07
30463;BME280;17256;43.618;25.336;2023-04-19T12:53:53;100106.63;;;19.32;61.92
30463;BME280;17256;43.618;25.336;2023-04-19T12:56:28;100148.34;;;19.59;61.55
30463;BME280;17256;43.618;25.336;2023-04-19T12:59:29;100231.50;;;19.88;62.18
30463;BME280;17256;43.618;25.336;2023-04-19T13:02:04;100085.00;;;19.02;62.79
30463;BME280;17256;43.618;25.336;2023-04-19T13:05:22;100086.63;;;19.41;64.07
30463;BME280;17256;43.618;25.336;2023-04-19T13:13:19;99907.97;;;17.80;64.05
30463;BME280;17256;43.618;25.336;2023-04-19T13:15:56;100084.44;;;19.00;64.70
30463;BME280;17256;43.618;25.336;2023-04-19T13:18:53;100213.53;;;19.63;64.12
30463;BME280;17256;43.618;25.336;2023-04-19T13:21:41;99949.44;;;18.19;61.89
30463;BME280;17256;43.618;25.336;2023-04-19T13:24:07;99987.06;;;18.31;66.18
30463;BME280;17256;43.618;25.336;2023-04-19T13:26:33;100141.78;;;19.44;66.36
30463;BME280;17256;43.618;25.336;2023-04-19T13:28:59;99980.50;;;18.42;66.12
30463;BME280;17256;43.618;25.336;2023-04-19T13:31:26;100061.22;;;18.85;64.99
30463;BME280;17256;43.618;25.336;2023-04-19T13:33:53;100204.59;;;19.61;64.60
30463;BME280;17256;43.618;25.336;2023-04-19T13:36:19;100086.03;;;18.91;64.91
30463;BME280;17256;43.618;25.336;2023-04-19T13:38:46;100077.28;;;19.15;64.97
30463;BME280;17256;43.618;25.336;2023-04-19T13:41:12;100061.44;;;19.15;63.55
30463;BME280;17256;43.618;25.336;2023-04-19T13:43:39;100219.81;;;20.48;63.71
30463;BME280;17256;43.618;25.336;2023-04-19T13:46:06;100053.16;;;19.88;60.71
30463;BME280;17256;43.618;25.336;2023-04-19T13:48:39;100067.94;;;19.93;61.30
30463;BME280;17256;43.618;25.336;2023-04-19T13:51:49;100196.00;;;20.25;58.52
30463;BME280;17256;43.618;25.336;2023-04-19T13:55:09;99927.25;;;18.61;59.01
30463;BME280;17256;43.618;25.336;2023-04-19T13:58:20;100188.75;;;19.67;60.36
30463;BME280;17256;43.618;25.336;2023-04-19T14:01:39;99978.59;;;18.16;61.09
30463;BME280;17256;43.618;25.336;2023-04-19T14:07:14;99765.59;;;17.26;59.36
30463;BME280;17256;43.618;25.336;2023-04-19T14:10:16;100069.03;;;18.88;59.64
30463;BME280;17256;43.618;25.336;2023-04-19T14:13:31;100180.66;;;19.60;60.00
30463;BME280;17256;43.618;25.336;2023-04-19T14:16:21;100019.69;;;18.41;59.20
30463;BME280;17256;43.618;25.336;2023-04-19T14:19:08;99986.59;;;18.39;59.61
30463;BME280;17256;43.618;25.336;2023-04-19T14:22:44;99692.88;;;16.65;57.67
30463;BME280;17256;43.618;25.336;2023-04-19T14:25:13;99990.47;;;18.70;59.19
30463;BME280;17256;43.618;25.336;2023-04-19T14:27:43;99959.44;;;18.52;58.37
30463;BME280;17256;43.618;25.336;2023-04-19T14:30:11;100043.16;;;18.87;58.21
30463;BME280;17256;43.618;25.336;2023-04-19T14:32:37;100029.28;;;18.92;58.95
30463;BME280;17256;43.618;25.336;2023-04-19T14:35:03;100176.63;;;19.93;58.83
30463;BME280;17256;43.618;25.336;2023-04-19T14:37:41;100199.31;;;20.17;59.80
30463;BME280;17256;43.618;25.336;2023-04-19T14:45:06;99950.13;;;18.68;57.76
30463;BME280;17256;43.618;25.336;2023-04-19T14:48:41;99963.03;;;18.52;58.57
30463;BME280;17256;43.618;25.336;2023-04-19T14:52:17;100087.66;;;19.29;58.02
30463;BME280;17256;43.618;25.336;2023-04-19T14:54:56;100169.38;;;19.87;59.53
30463;BME280;17256;43.618;25.336;2023-04-19T14:58:33;99940.06;;;18.62;59.78
30463;BME280;17256;43.618;25.336;2023-04-19T15:01:29;100174.16;;;19.97;59.95
30463;BME280;17256;43.618;25.336;2023-04-19T15:05:02;100178.78;;;19.76;60.04
30463;BME280;17256;43.618;25.336;2023-04-19T15:08:42;100104.69;;;18.91;63.23
30463;BME280;17256;43.618;25.336;2023-04-19T15:11:25;99964.00;;;17.72;64.32
30463;BME280;17256;43.618;25.336;2023-04-19T15:13:50;100033.94;;;18.18;65.32
30463;BME280;17256;43.618;25.336;2023-04-19T15:16:16;100002.28;;;17.92;66.11
30463;BME280;17256;43.618;25.336;2023-04-19T15:18:42;100062.59;;;17.96;65.85
30463;BME280;17256;43.618;25.336;2023-04-19T15:21:07;100036.50;;;17.97;66.73
30463;BME280;17256;43.618;25.336;2023-04-19T15:23:53;100189.50;;;18.61;67.34
30463;BME280;17256;43.618;25.336;2023-04-19T15:26:22;100181.88;;;18.52;69.39
30463;BME280;17256;43.618;25.336;2023-04-19T15:29:00;99793.31;;;15.89;69.62
30463;BME280;17256;43.618;25.336;2023-04-19T15:39:12;100075.41;;;17.75;72.60
30463;BME280;17256;43.618;25.336;2023-04-19T15:42:16;99943.13;;;16.99;71.90
30463;BME280;17256;43.618;25.336;2023-04-19T15:51:40;99791.44;;;15.95;72.80
30463;BME280;17256;43.618;25.336;2023-04-19T15:55:02;99825.84;;;15.99;73.64
30463;BME280;17256;43.618;25.336;2023-04-19T15:57:32;99976.09;;;16.95;75.02
30463;BME280;17256;43.618;25.336;2023-04-19T15:59:58;100099.56;;;17.75;73.96
30463;BME280;17256;43.618;25.336;2023-04-19T16:02:32;100181.47;;;18.16;75.00
30463;BME280;17256;43.618;25.336;2023-04-19T16:04:59;100045.03;;;17.47;76.75
30463;BME280;17256;43.618;25.336;2023-04-19T16:07:26;100152.13;;;18.03;76.50
30463;BME280;17256;43.618;25.336;2023-04-19T16:09:53;99954.81;;;16.62;76.64
30463;BME280;17256;43.618;25.336;2023-04-19T16:18:45;99861.19;;;15.92;80.28
30463;BME280;17256;43.618;25.336;2023-04-19T16:21:11;100090.41;;;17.36;79.85
30463;BME280;17256;43.618;25.336;2023-04-19T16:29:16;99773.91;;;15.56;80.66
30463;BME280;17256;43.618;25.336;2023-04-19T16:31:52;100081.75;;;17.54;78.13
30463;BME280;17256;43.618;25.336;2023-04-19T16:34:56;99968.50;;;16.52;78.97
30463;BME280;17256;43.618;25.336;2023-04-19T16:38:03;100083.88;;;17.08;82.69
30463;BME280;17256;43.618;25.336;2023-04-19T16:44:38;100197.78;;;17.52;86.11
30463;BME280;17256;43.618;25.336;2023-04-19T16:47:38;99936.91;;;15.86;86.19
30463;BME280;17256;43.618;25.336;2023-04-19T16:50:51;99935.84;;;15.87;86.18
30463;BME280;17256;43.618;25.336;2023-04-19T16:53:44;99987.72;;;15.91;87.62
30463;BME280;17256;43.618;25.336;2023-04-19T16:56:45;99835.84;;;14.93;88.73
30463;BME280;17256;43.618;25.336;2023-04-19T16:59:11;100054.78;;;16.10;91.37
30463;BME280;17256;43.618;25.336;2023-04-19T17:01:37;100159.81;;;16.69;92.01
30463;BME280;17256;43.618;25.336;2023-04-19T17:04:39;99757.56;;;14.24;93.30
30463;BME280;17256;43.618;25.336;2023-04-19T17:08:41;100209.38;;;16.82;96.24
30463;BME280;17256;43.618;25.336;2023-04-19T17:12:22;100211.91;;;16.67;98.07
30463;BME280;17256;43.618;25.336;2023-04-19T17:14:58;100066.78;;;15.59;98.71
30463;BME280;17256;43.618;25.336;2023-04-19T17:17:24;100019.78;;;15.35;98.83
30463;BME280;17256;43.618;25.336;2023-04-19T17:30:39;100213.41;;;16.06;100.00
30463;BME280;17256;43.618;25.336;2023-04-19T17:33:59;100015.69;;;14.63;100.00
30463;BME280;17256;43.618;25.336;2023-04-19T17:44:03;99821.47;;;13.15;100.00
30463;BME280;17256;43.618;25.336;2023-04-19T17:46:29;100254.16;;;15.58;100.00
30463;BME280;17256;43.618;25.336;2023-04-19T17:49:18;99823.72;;;12.88;100.00
30463;BME280;17256;43.618;25.336;2023-04-19T17:52:24;99827.19;;;12.84;100.00
30463;BME280;17256;43.618;25.336;2023-04-19T17:55:31;99819.38;;;12.51;100.00
30463;BME280;17256;43.618;25.336;2023-04-19T17:57:58;99932.16;;;13.31;100.00
30463;BME280;17256;43.618;25.336;2023-04-19T18:00:24;99891.72;;;12.94;100.00
30463;BME280;17256;43.618;25.336;2023-04-19T18:02:50;100250.84;;;15.26;100.00
30463;BME280;17256;43.618;25.336;2023-04-19T18:05:15;100088.75;;;14.25;100.00
30463;BME280;17256;43.618;25.336;2023-04-19T18:07:42;99988.75;;;13.51;100.00
30463;BME280;17256;43.618;25.336;2023-04-19T18:10:08;99990.31;;;13.59;100.00
30463;BME280;17256;43.618;25.336;2023-04-19T18:12:33;100106.03;;;14.21;100.00
30463;BME280;17256;43.618;25.336;2023-04-19T18:15:00;100054.84;;;13.76;100.00
30463;BME280;17256;43.618;25.336;2023-04-19T18:17:27;100036.56;;;13.64;100.00
30463;BME280;17256;43.618;25.336;2023-04-19T18:19:52;100160.44;;;14.50;100.00
30463;BME280;17256;43.618;25.336;2023-04-19T18:22:47;100264.28;;;15.11;100.00
30463;BME280;17256;43.618;25.336;2023-04-19T18:25:25;100000.25;;;13.48;100.00
30463;BME280;17256;43.618;25.336;2023-04-19T18:27:51;100022.59;;;13.59;100.00
30463;BME280;17256;43.618;25.336;2023-04-19T18:30:16;100151.16;;;14.14;100.00
30463;BME280;17256;43.618;25.336;2023-04-19T18:32:42;100205.34;;;14.45;100.00
30463;BME280;17256;43.618;25.336;2023-04-19T18:35:09;100037.09;;;13.54;100.00
30463;BME280;17256;43.618;25.336;2023-04-19T18:37:34;100128.25;;;13.96;100.00
30463;BME280;17256;43.618;25.336;2023-04-19T18:40:20;100282.06;;;14.92;100.00
30463;BME280;17256;43.618;25.336;2023-04-19T18:42:50;100222.28;;;14.49;100.00
30463;BME280;17256;43.618;25.336;2023-04-19T18:45:17;100104.91;;;13.62;100.00
30463;BME280;17256;43.618;25.336;2023-04-19T18:47:59;99861.34;;;12.10;100.00
30463;BME280;17256;43.618;25.336;2023-04-19T18:51:01;99857.59;;;12.04;100.00
30463;BME280;17256;43.618;25.336;2023-04-19T18:57:22;100138.66;;;13.64;100.00
30463;BME280;17256;43.618;25.336;2023-04-19T19:00:45;99858.56;;;11.91;100.00
30463;BME280;17256;43.618;25.336;2023-04-19T19:04:19;99987.25;;;12.64;100.00
30463;BME280;17256;43.618;25.336;2023-04-19T19:07:19;100005.84;;;12.69;100.00
30463;BME280;17256;43.618;25.336;2023-04-19T19:10:05;100174.56;;;13.57;100.00
30463;BME280;17256;43.618;25.336;2023-04-19T19:13:01;100147.81;;;13.58;100.00
30463;BME280;17256;43.618;25.336;2023-04-19T19:16:11;100128.19;;;13.29;100.00
30463;BME280;17256;43.618;25.336;2023-04-19T19:18:37;100086.25;;;13.02;100.00
30463;BME280;17256;43.618;25.336;2023-04-19T19:21:02;100327.19;;;14.56;100.00
30463;BME280;17256;43.618;25.336;2023-04-19T19:23:32;100143.78;;;13.42;100.00
30463;BME280;17256;43.618;25.336;2023-04-19T19:41:10;100111.06;;;13.02;100.00
30463;BME280;17256;43.618;25.336;2023-04-19T19:43:36;100108.38;;;12.96;100.00
30463;BME280;17256;43.618;25.336;2023-04-19T19:46:04;100017.59;;;12.32;100.00
30463;BME280;17256;43.618;25.336;2023-04-19T19:48:29;100050.25;;;12.54;100.00
30463;BME280;17256;43.618;25.336;2023-04-19T19:50:55;100137.78;;;13.02;100.00
30463;BME280;17256;43.618;25.336;2023-04-19T19:53:22;100120.47;;;12.94;100.00
30463;BME280;17256;43.618;25.336;2023-04-19T19:55:50;100033.28;;;12.57;100.00
30463;BME280;17256;43.618;25.336;2023-04-19T19:58:15;100218.59;;;13.70;100.00
30463;BME280;17256;43.618;25.336;2023-04-19T20:00:41;100128.81;;;13.06;100.00
30463;BME280;17256;43.618;25.336;2023-04-19T20:03:07;100287.81;;;14.05;100.00
30463;BME280;17256;43.618;25.336;2023-04-19T20:05:32;100011.38;;;12.44;100.00
30463;BME280;17256;43.618;25.336;2023-04-19T20:08:06;100124.06;;;13.13;100.00
30463;BME280;17256;43.618;25.336;2023-04-19T20:10:34;100027.72;;;12.39;100.00
30463;BME280;17256;43.618;25.336;2023-04-19T20:13:00;100141.50;;;13.14;100.00
30463;BME280;17256;43.618;25.336;2023-04-19T20:15:26;100094.25;;;12.85;100.00
30463;BME280;17256;43.618;25.336;2023-04-19T20:17:51;99995.72;;;12.19;100.00
30463;BME280;17256;43.618;25.336;2023-04-19T20:20:17;100238.28;;;13.74;100.00
30463;BME280;17256;43.618;25.336;2023-04-19T20:22:44;99912.22;;;11.76;100.00
30463;BME280;17256;43.618;25.336;2023-04-19T20:26:01;100306.53;;;14.03;100.00
30463;BME280;17256;43.618;25.336;2023-04-19T20:28:52;100181.81;;;13.08;100.00
30463;BME280;17256;43.618;25.336;2023-04-19T20:31:19;99997.44;;;12.14;100.00
30463;BME280;17256;43.618;25.336;2023-04-19T20:33:44;100107.09;;;12.73;100.00
30463;BME280;17256;43.618;25.336;2023-04-19T20:36:10;99994.56;;;12.02;100.00
30463;BME280;17256;43.618;25.336;2023-04-19T20:38:38;100183.19;;;12.99;100.00
30463;BME280;17256;43.618;25.336;2023-04-19T20:41:04;100095.78;;;12.56;100.00
30463;BME280;17256;43.618;25.336;2023-04-19T20:43:30;99951.78;;;11.75;100.00
30463;BME280;17256;43.618;25.336;2023-04-19T20:45:56;100178.22;;;13.08;100.00
30463;BME280;17256;43.618;25.336;2023-04-19T20:48:22;100065.41;;;12.38;100.00
30463;BME280;17256;43.618;25.336;2023-04-19T20:50:48;100049.72;;;12.14;100.00
30463;BME280;17256;43.618;25.336;2023-04-19T20:53:13;100009.22;;;11.96;100.00
30463;BME280;17256;43.618;25.336;2023-04-19T20:55:39;100161.97;;;12.75;100.00
30463;BME280;17256;43.618;25.336;2023-04-19T20:58:05;100149.31;;;12.67;100.00
30463;BME280;17256;43.618;25.336;2023-04-19T21:00:31;100052.97;;;12.04;100.00
30463;BME280;17256;43.618;25.336;2023-04-19T21:02:57;100214.13;;;13.01;100.00
30463;BME280;17256;43.618;25.336;2023-04-19T21:05:22;100038.03;;;11.93;100.00
30463;BME280;17256;43.618;25.336;2023-04-19T21:07:48;100153.56;;;12.63;100.00
30463;BME280;17256;43.618;25.336;2023-04-19T21:10:14;100238.25;;;13.06;100.00
30463;BME280;17256;43.618;25.336;2023-04-19T21:12:42;100230.97;;;12.86;100.00
30463;BME280;17256;43.618;25.336;2023-04-19T21:15:07;100130.94;;;12.29;100.00
30463;BME280;17256;43.618;25.336;2023-04-19T21:17:33;100180.59;;;12.79;100.00
30463;BME280;17256;43.618;25.336;2023-04-19T21:20:00;100031.94;;;11.85;100.00
30463;BME280;17256;43.618;25.336;2023-04-19T21:22:27;100125.25;;;12.24;100.00
30463;BME280;17256;43.618;25.336;2023-04-19T21:24:52;99956.84;;;11.46;100.00
30463;BME280;17256;43.618;25.336;2023-04-19T21:27:18;99975.47;;;11.44;100.00
30463;BME280;17256;43.618;25.336;2023-04-19T21:29:44;100113.81;;;12.27;100.00
30463;BME280;17256;43.618;25.336;2023-04-19T21:32:10;100107.34;;;12.09;100.00
30463;BME280;17256;43.618;25.336;2023-04-19T21:34:35;100088.66;;;11.86;100.00
30463;BME280;17256;43.618;25.336;2023-04-19T21:37:03;100124.88;;;12.21;100.00
30463;BME280;17256;43.618;25.336;2023-04-19T21:39:29;100097.25;;;12.02;100.00
30463;BME280;17256;43.618;25.336;2023-04-19T21:41:55;100059.06;;;11.75;100.00
30463;BME280;17256;43.618;25.336;2023-04-19T21:44:21;100093.25;;;11.98;100.00
30463;BME280;17256;43.618;25.336;2023-04-19T21:46:47;100278.66;;;12.93;100.00
30463;BME280;17256;43.618;25.336;2023-04-19T21:49:12;100003.19;;;11.36;100.00
30463;BME280;17256;43.618;25.336;2023-04-19T21:51:40;100118.91;;;11.86;100.00
30463;BME280;17256;43.618;25.336;2023-04-19T21:54:05;99947.41;;;10.91;100.00
30463;BME280;17256;43.618;25.336;2023-04-19T21:56:31;100101.63;;;11.72;100.00
30463;BME280;17256;43.618;25.336;2023-04-19T21:58:57;99991.03;;;11.12;100.00
30463;BME280;17256;43.618;25.336;2023-04-19T22:01:23;100037.25;;;11.42;100.00
30463;BME280;17256;43.618;25.336;2023-04-19T22:03:48;100078.16;;;11.63;100.00
30463;BME280;17256;43.618;25.336;2023-04-19T22:06:15;100109.19;;;11.90;100.00
30463;BME280;17256;43.618;25.336;2023-04-19T22:08:41;99902.47;;;10.72;100.00
30463;BME280;17256;43.618;25.336;2023-04-19T22:11:08;100024.84;;;11.19;100.00
30463;BME280;17256;43.618;25.336;2023-04-19T22:13:33;100124.91;;;11.69;100.00
30463;BME280;17256;43.618;25.336;2023-04-19T22:16:01;100036.47;;;11.21;100.00